createdAt,value
2023-04-16T00:01:58.973Z,31.20
2023-04-16T00:06:59.714Z,31.20
2023-04-16T00:12:00.398Z,31.60
2023-04-16T00:17:01.222Z,32.40
2023-04-16T00:22:01.916Z,32.70
2023-04-16T00:27:02.620Z,34.70
2023-04-16T00:32:03.430Z,32.50
2023-04-16T00:37:04.170Z,32.80
2023-04-16T00:42:04.962Z,33.70
2023-04-16T00:47:05.670Z,33.20
2023-04-16T00:52:06.405Z,32.60
2023-04-16T00:57:07.090Z,34.70
2023-04-16T01:02:07.992Z,32.80
2023-04-16T01:07:08.761Z,31.40
2023-04-16T01:12:09.462Z,33.30
2023-04-16T01:17:10.174Z,30.90
2023-04-16T01:22:10.911Z,30.90
2023-04-16T01:27:11.610Z,30.90
2023-04-16T01:32:12.342Z,30.70
2023-04-16T01:37:13.090Z,30.80
2023-04-16T01:42:13.770Z,33.80
2023-04-16T01:47:14.499Z,32.50
2023-04-16T01:52:15.222Z,30.40
2023-04-16T01:57:15.963Z,31.40
2023-04-16T02:02:16.736Z,30.30
2023-04-16T02:07:17.456Z,30.00
2023-04-16T02:12:18.177Z,29.70
2023-04-16T02:17:18.923Z,30.40
2023-04-16T02:22:19.606Z,30.80
2023-04-16T02:27:20.334Z,28.80
2023-04-16T02:32:21.074Z,28.90
2023-04-16T02:37:21.790Z,31.90
2023-04-16T02:42:22.480Z,33.20
2023-04-16T02:47:23.214Z,35.70
2023-04-16T02:52:23.912Z,35.70
2023-04-16T02:57:24.651Z,43.70
2023-04-16T03:02:25.450Z,37.90
2023-04-16T03:07:26.269Z,38.40
2023-04-16T03:12:26.953Z,39.30
2023-04-16T03:17:27.717Z,40.90
2023-04-16T03:22:28.396Z,39.20
2023-04-16T03:27:29.111Z,38.40
2023-04-16T03:32:29.866Z,39.60
2023-04-16T03:37:30.538Z,39.90
2023-04-16T03:42:31.262Z,36.00
2023-04-16T03:47:32.038Z,35.30
2023-04-16T03:52:32.731Z,36.80
2023-04-16T03:57:33.390Z,35.00
2023-04-16T04:02:34.256Z,36.60
2023-04-16T04:07:35.002Z,36.00
2023-04-16T04:12:35.674Z,40.00
2023-04-16T04:17:36.353Z,40.80
2023-04-16T04:22:36.979Z,44.00
2023-04-16T04:27:37.628Z,42.50
2023-04-16T04:32:38.319Z,42.50
2023-04-16T04:37:38.949Z,42.80
2023-04-16T04:42:39.624Z,44.40
2023-04-16T04:47:40.346Z,43.50
2023-04-16T04:52:40.984Z,46.80
2023-04-16T04:57:41.625Z,47.70
2023-04-16T05:02:42.364Z,47.30
2023-04-16T05:07:43.056Z,45.00
2023-04-16T05:12:43.724Z,45.70
2023-04-16T05:17:44.406Z,42.70
2023-04-16T05:22:45.047Z,41.20
2023-04-16T05:27:45.708Z,37.90
2023-04-16T05:32:53.550Z,38.40
2023-04-16T05:37:47.159Z,43.60
2023-04-16T05:42:48.025Z,37.40
2023-04-16T05:47:48.691Z,40.80
2023-04-16T05:52:49.379Z,35.50
2023-04-16T05:57:50.031Z,36.60
2023-04-16T06:02:50.751Z,36.00
2023-04-16T06:07:51.501Z,33.60
2023-04-16T06:12:52.179Z,34.10
2023-04-16T06:17:52.841Z,34.00
2023-04-16T06:22:53.500Z,34.10
2023-04-16T06:27:54.172Z,35.20
2023-04-16T06:32:54.913Z,35.10
2023-04-16T06:37:55.586Z,34.60
2023-04-16T06:42:56.224Z,33.70
2023-04-16T06:47:57.028Z,33.70
2023-04-16T06:52:57.698Z,34.60
2023-04-16T06:57:58.349Z,34.20
2023-04-16T07:02:59.146Z,38.70
2023-04-16T07:07:59.805Z,36.30
2023-04-16T07:13:00.496Z,40.40
2023-04-16T07:18:01.196Z,42.40
2023-04-16T07:23:01.878Z,38.20
2023-04-16T07:28:02.526Z,47.50
2023-04-16T07:33:03.247Z,41.20
2023-04-16T07:38:03.861Z,37.90
2023-04-16T07:43:04.529Z,37.10
2023-04-16T07:48:05.244Z,37.80
2023-04-16T07:53:06.035Z,36.90
2023-04-16T07:58:06.670Z,37.00
2023-04-16T08:03:07.491Z,34.40
2023-04-16T08:08:08.191Z,38.50
2023-04-16T08:13:08.961Z,37.00
2023-04-16T08:18:09.711Z,36.90
2023-04-16T08:23:10.356Z,42.50
2023-04-16T08:28:11.019Z,42.70
2023-04-16T08:33:11.737Z,39.90
2023-04-16T08:38:12.367Z,37.20
2023-04-16T08:43:13.031Z,36.10
2023-04-16T08:48:13.677Z,37.90
2023-04-16T08:53:14.384Z,39.80
2023-04-16T08:58:15.034Z,37.40
2023-04-16T09:03:15.783Z,37.20
2023-04-16T09:08:16.457Z,38.00
2023-04-16T09:13:17.135Z,36.00
2023-04-16T09:18:17.789Z,28.50
2023-04-16T09:23:18.443Z,39.90
2023-04-16T09:28:19.133Z,27.90
2023-04-16T09:33:19.778Z,28.10
2023-04-16T09:38:20.439Z,29.00
2023-04-16T09:43:21.135Z,30.50
2023-04-16T09:48:21.774Z,30.00
2023-04-16T09:53:22.444Z,30.20
2023-04-16T09:58:23.144Z,31.80
2023-04-16T10:03:23.851Z,30.50
2023-04-16T10:08:24.704Z,34.20
2023-04-16T10:13:25.428Z,33.40
2023-04-16T10:18:26.026Z,34.60
2023-04-16T10:23:26.716Z,35.00
2023-04-16T10:28:27.377Z,35.80
2023-04-16T10:33:28.017Z,34.00
2023-04-16T10:38:28.702Z,32.60
2023-04-16T10:43:29.389Z,34.10
2023-04-16T10:48:38.716Z,32.40
2023-04-16T10:53:31.571Z,32.20
2023-04-16T10:58:31.266Z,30.20
2023-04-16T11:03:32.021Z,28.80
2023-04-16T11:08:34.970Z,26.60
2023-04-16T11:13:33.152Z,25.70
2023-04-16T11:18:33.810Z,31.10
2023-04-16T11:23:34.480Z,25.20
2023-04-16T11:28:35.123Z,25.40
2023-04-16T11:33:42.808Z,44.40
2023-04-16T11:38:36.406Z,34.70
2023-04-16T11:43:37.073Z,23.20
2023-04-16T11:48:37.757Z,20.90
2023-04-16T11:53:38.442Z,18.40
2023-04-16T11:58:39.077Z,18.60
2023-04-16T12:03:40.340Z,16.50
2023-04-16T12:08:40.744Z,17.50
2023-04-16T12:13:41.427Z,18.00
2023-04-16T12:18:42.076Z,18.30
2023-04-16T12:23:42.741Z,15.60
2023-04-16T12:28:43.391Z,17.70
2023-04-16T12:33:44.072Z,18.00
2023-04-16T12:38:44.748Z,16.90
2023-04-16T12:43:45.398Z,17.30
2023-04-16T12:48:46.051Z,16.30
2023-04-16T12:53:46.736Z,16.70
2023-04-16T12:58:47.419Z,16.20
2023-04-16T13:03:48.399Z,16.60
2023-04-16T13:08:48.657Z,16.80
2023-04-16T13:13:49.335Z,17.90
2023-04-16T13:18:50.014Z,15.60
2023-04-16T13:23:50.679Z,16.20
2023-04-16T13:28:51.336Z,16.20
2023-04-16T13:33:52.026Z,17.40
2023-04-16T13:38:52.658Z,15.30
2023-04-16T13:43:53.329Z,14.90
2023-04-16T13:48:53.990Z,15.40
2023-04-16T13:53:54.700Z,16.20
2023-04-16T13:58:55.316Z,16.20
2023-04-16T14:03:56.078Z,14.70
2023-04-16T14:08:56.711Z,14.30
2023-04-16T14:13:57.390Z,15.60
2023-04-16T14:18:58.040Z,14.50
2023-04-16T14:23:58.701Z,13.50
2023-04-16T14:28:59.377Z,13.70
2023-04-16T14:34:00.045Z,19.70
2023-04-16T14:39:00.674Z,18.90
2023-04-16T14:44:01.360Z,14.50
2023-04-16T14:49:02.129Z,11.80
2023-04-16T14:54:02.780Z,11.70
2023-04-16T14:59:03.447Z,11.90
2023-04-16T15:04:04.173Z,13.10
2023-04-16T15:09:04.829Z,13.70
2023-04-16T15:14:05.526Z,12.90
2023-04-16T15:19:06.156Z,11.70
2023-04-16T15:24:06.841Z,10.80
2023-04-16T15:29:07.567Z,11.90
2023-04-16T15:34:08.474Z,12.60
2023-04-16T15:39:09.085Z,13.50
2023-04-16T15:44:09.294Z,13.20
2023-04-16T15:49:10.179Z,12.80
2023-04-16T15:54:10.493Z,13.40
2023-04-16T15:59:11.357Z,12.80
2023-04-16T16:04:11.908Z,13.70
2023-04-16T16:09:12.878Z,15.20
2023-04-16T16:14:13.075Z,13.00
2023-04-16T16:19:13.788Z,15.90
2023-04-16T16:24:14.462Z,14.60
2023-04-16T16:29:15.161Z,15.00
2023-04-16T16:34:20.888Z,16.00
2023-04-16T16:39:17.634Z,15.70
2023-04-16T16:44:17.284Z,14.50
2023-04-16T16:49:17.973Z,15.10
2023-04-16T16:54:18.629Z,13.70
2023-04-16T16:59:19.377Z,17.70
2023-04-16T17:04:20.593Z,14.70
2023-04-16T17:09:20.818Z,16.00
2023-04-16T17:14:21.515Z,17.90
2023-04-16T17:19:22.235Z,21.10
2023-04-16T17:24:22.879Z,15.60
2023-04-16T17:29:23.592Z,15.30
2023-04-16T17:34:24.260Z,14.70
2023-04-16T17:39:24.935Z,15.70
2023-04-16T17:44:25.626Z,15.90
2023-04-16T17:49:26.344Z,14.50
2023-04-16T17:54:26.985Z,14.00
2023-04-16T17:59:27.758Z,15.90
2023-04-16T18:04:28.597Z,19.00
2023-04-16T18:09:29.354Z,14.50
2023-04-16T18:14:30.015Z,16.50
2023-04-16T18:19:30.676Z,14.20
2023-04-16T18:24:31.380Z,17.20
2023-04-16T18:29:33.934Z,18.00
2023-04-16T18:34:32.754Z,19.10
2023-04-16T18:39:33.428Z,15.90
2023-04-16T18:44:34.162Z,18.20
2023-04-16T18:49:34.858Z,16.10
2023-04-16T18:54:35.564Z,16.80
2023-04-16T18:59:36.313Z,16.50
2023-04-16T19:04:37.292Z,15.00
2023-04-16T19:09:37.497Z,16.50
2023-04-16T19:14:38.229Z,16.60
2023-04-16T19:19:38.952Z,14.70
2023-04-16T19:24:39.684Z,16.30
2023-04-16T19:29:40.384Z,16.40
2023-04-16T19:34:41.106Z,15.60
2023-04-16T19:39:41.817Z,16.80
2023-04-16T19:44:42.551Z,17.60
2023-04-16T19:49:43.252Z,17.00
2023-04-16T19:54:43.969Z,17.50
2023-04-16T19:59:44.666Z,21.10
2023-04-16T20:04:45.414Z,16.60
2023-04-16T20:09:46.113Z,14.00
2023-04-16T20:14:46.823Z,15.00
2023-04-16T20:19:47.546Z,15.00
2023-04-16T20:24:48.389Z,14.80
2023-04-16T20:29:49.067Z,15.10
2023-04-16T20:34:49.807Z,14.50
2023-04-16T20:39:50.480Z,13.50
2023-04-16T20:44:51.218Z,13.30
2023-04-16T20:49:51.916Z,13.40
2023-04-16T20:54:52.634Z,15.50
2023-04-16T20:59:53.329Z,14.30
2023-04-16T21:04:54.081Z,12.70
2023-04-16T21:09:54.767Z,13.00
2023-04-16T21:14:55.479Z,14.20
2023-04-16T21:20:03.233Z,13.60
2023-04-16T21:24:56.927Z,14.80
2023-04-16T21:29:57.648Z,14.10
2023-04-16T21:34:58.365Z,14.70
2023-04-16T21:39:59.170Z,14.00
2023-04-16T21:44:59.874Z,13.00
2023-04-16T21:50:00.694Z,13.60
2023-04-16T21:55:01.485Z,15.40
2023-04-16T22:00:02.206Z,14.00
2023-04-16T22:05:02.913Z,14.80
2023-04-16T22:10:03.646Z,16.50
2023-04-16T22:15:04.419Z,15.50
2023-04-16T22:20:05.233Z,14.20
2023-04-16T22:25:06.116Z,14.90
2023-04-16T22:30:06.826Z,14.90
2023-04-16T22:35:07.541Z,14.80
2023-04-16T22:40:08.507Z,15.60
2023-04-16T22:45:08.708Z,14.60
2023-04-16T22:50:09.428Z,16.70
2023-04-16T22:55:10.152Z,16.00
2023-04-16T23:00:10.857Z,17.00
2023-04-16T23:05:11.613Z,15.90
2023-04-16T23:10:12.323Z,16.90
2023-04-16T23:15:13.045Z,15.60
2023-04-16T23:20:13.758Z,16.60
2023-04-16T23:25:14.473Z,16.10
2023-04-16T23:30:15.203Z,17.20
2023-04-16T23:35:15.911Z,17.30
2023-04-16T23:40:16.633Z,18.60
2023-04-16T23:45:17.445Z,17.60
2023-04-16T23:50:18.181Z,18.40
2023-04-16T23:55:18.894Z,18.20
